createdAt,value
2019-05-20T00:00:42.729Z,13.60
2019-05-20T00:03:12.490Z,13.60
2019-05-20T00:05:42.581Z,13.60
2019-05-20T00:08:12.496Z,13.60
2019-05-20T00:10:42.294Z,13.70
2019-05-20T00:13:12.004Z,13.70
2019-05-20T00:15:41.739Z,13.70
2019-05-20T00:18:11.538Z,13.80
2019-05-20T00:20:41.294Z,13.80
2019-05-20T00:23:11.051Z,13.80
2019-05-20T00:25:40.808Z,13.80
2019-05-20T00:28:10.504Z,13.70
2019-05-20T00:30:40.217Z,13.70
2019-05-20T00:33:09.934Z,13.80
2019-05-20T00:35:39.703Z,13.80
2019-05-20T00:38:09.423Z,13.80
2019-05-20T00:40:39.110Z,13.90
2019-05-20T00:43:08.838Z,13.80
2019-05-20T00:45:38.556Z,13.80
2019-05-20T00:48:08.282Z,13.80
2019-05-20T00:50:38.079Z,13.80
2019-05-20T00:53:07.926Z,13.80
2019-05-20T00:55:38.911Z,13.70
2019-05-20T00:58:08.776Z,13.80
2019-05-20T01:00:39.050Z,13.80
2019-05-20T01:03:08.883Z,13.70
2019-05-20T01:05:38.595Z,13.80
2019-05-20T01:08:08.334Z,13.80
2019-05-20T01:10:38.034Z,13.80
2019-05-20T01:13:07.834Z,13.80
2019-05-20T01:15:37.543Z,13.80
2019-05-20T01:18:07.276Z,13.80
2019-05-20T01:20:36.960Z,13.80
2019-05-20T01:23:07.074Z,13.80
2019-05-20T01:25:36.880Z,13.80
2019-05-20T01:28:06.667Z,13.70
2019-05-20T01:30:36.447Z,13.70
2019-05-20T01:33:13.901Z,13.80
2019-05-20T01:35:37.659Z,13.80
2019-05-20T01:38:07.378Z,13.80
2019-05-20T01:40:37.228Z,13.80
2019-05-20T01:43:06.931Z,13.70
2019-05-20T01:45:36.643Z,13.70
2019-05-20T01:48:06.410Z,13.60
2019-05-20T01:50:36.120Z,13.60
2019-05-20T01:53:05.891Z,13.60
2019-05-20T01:55:35.667Z,13.60
2019-05-20T01:58:05.461Z,13.60
2019-05-20T02:00:35.255Z,13.60
2019-05-20T02:03:05.055Z,13.50
2019-05-20T02:05:34.748Z,13.50
2019-05-20T02:08:04.451Z,13.50
2019-05-20T02:10:34.161Z,13.50
2019-05-20T02:13:04.038Z,13.50
2019-05-20T02:15:42.312Z,13.50
2019-05-20T02:18:12.183Z,13.60
2019-05-20T02:20:42.057Z,13.50
2019-05-20T02:23:15.373Z,13.50
2019-05-20T02:25:46.963Z,13.40
2019-05-20T02:28:17.918Z,13.40
2019-05-20T02:30:47.697Z,13.40
2019-05-20T02:33:17.605Z,13.40
2019-05-20T02:35:47.329Z,13.40
2019-05-20T02:38:17.033Z,13.40
2019-05-20T02:40:46.715Z,13.40
2019-05-20T02:43:16.507Z,13.40
2019-05-20T02:45:46.360Z,13.40
2019-05-20T02:48:16.128Z,13.40
2019-05-20T02:50:45.987Z,13.40
2019-05-20T02:53:15.860Z,13.30
2019-05-20T02:55:45.641Z,13.30
2019-05-20T02:58:15.336Z,13.30
2019-05-20T03:00:46.285Z,13.30
2019-05-20T03:03:16.180Z,13.30
2019-05-20T03:05:45.891Z,13.30
2019-05-20T03:08:15.573Z,13.30
2019-05-20T03:10:45.532Z,13.30
2019-05-20T03:13:15.231Z,13.30
2019-05-20T03:15:44.989Z,13.30
2019-05-20T03:18:14.700Z,13.30
2019-05-20T03:20:44.450Z,13.20
2019-05-20T03:23:14.624Z,13.20
2019-05-20T03:25:44.516Z,13.20
2019-05-20T03:28:14.212Z,13.20
2019-05-20T03:30:44.523Z,13.20
2019-05-20T03:33:15.380Z,13.20
2019-05-20T03:35:45.302Z,13.20
2019-05-20T03:38:15.156Z,13.10
2019-05-20T03:40:44.996Z,13.10
2019-05-20T03:43:14.775Z,13.10
2019-05-20T03:45:45.134Z,13.10
2019-05-20T03:48:14.813Z,13.10
2019-05-20T03:50:44.670Z,13.10
2019-05-20T03:53:14.714Z,13.10
2019-05-20T03:55:45.017Z,13.20
2019-05-20T03:58:14.895Z,13.30
2019-05-20T04:00:48.091Z,13.20
2019-05-20T04:03:18.017Z,13.20
2019-05-20T04:05:47.710Z,13.20
2019-05-20T04:08:17.704Z,13.20
2019-05-20T04:10:47.526Z,13.20
2019-05-20T04:13:17.407Z,13.20
2019-05-20T04:15:47.118Z,13.20
2019-05-20T04:18:16.938Z,13.20
2019-05-20T04:20:46.710Z,13.20
2019-05-20T04:23:16.685Z,13.10
2019-05-20T04:25:46.471Z,13.20
2019-05-20T04:28:16.334Z,13.20
2019-05-20T04:30:46.297Z,13.20
2019-05-20T04:33:16.144Z,13.10
2019-05-20T04:35:49.685Z,13.10
2019-05-20T04:38:17.472Z,13.10
2019-05-20T04:40:47.271Z,13.10
2019-05-20T04:43:16.978Z,13.10
2019-05-20T04:45:46.857Z,13.10
2019-05-20T04:48:16.540Z,13.10
2019-05-20T04:50:46.454Z,13.20
2019-05-20T04:53:16.324Z,13.10
2019-05-20T04:55:46.174Z,13.20
2019-05-20T04:58:15.882Z,13.20
2019-05-20T05:00:56.529Z,13.20
2019-05-20T05:03:26.385Z,13.20
2019-05-20T05:05:56.273Z,13.30
2019-05-20T05:08:26.206Z,13.30
2019-05-20T05:10:56.091Z,13.40
2019-05-20T05:13:25.950Z,13.30
2019-05-20T05:15:55.793Z,13.30
2019-05-20T05:18:25.647Z,13.30
2019-05-20T05:20:55.706Z,13.30
2019-05-20T05:23:25.566Z,13.30
2019-05-20T05:25:55.504Z,13.30
2019-05-20T05:28:25.297Z,13.30
2019-05-20T05:30:55.175Z,13.30
2019-05-20T05:33:25.027Z,13.30
2019-05-20T05:35:55.060Z,13.40
2019-05-20T05:38:24.898Z,13.40
2019-05-20T05:40:54.699Z,13.40
2019-05-20T05:43:24.589Z,13.40
2019-05-20T05:45:54.299Z,13.40
2019-05-20T05:48:24.064Z,13.40
2019-05-20T05:50:53.779Z,13.40
2019-05-20T05:53:23.547Z,13.40
2019-05-20T05:55:53.325Z,13.40
2019-05-20T05:58:23.020Z,13.40
2019-05-20T06:00:52.721Z,13.40
2019-05-20T06:03:22.547Z,13.40
2019-05-20T06:06:10.290Z,13.40
2019-05-20T06:08:23.732Z,13.40
2019-05-20T06:10:53.415Z,13.50
2019-05-20T06:13:23.254Z,13.50
2019-05-20T06:15:54.727Z,13.60
2019-05-20T06:18:24.504Z,13.70
2019-05-20T06:20:54.272Z,13.70
2019-05-20T06:23:24.041Z,13.70
2019-05-20T06:25:53.881Z,13.70
2019-05-20T06:28:23.796Z,13.70
2019-05-20T06:30:53.583Z,13.70
2019-05-20T06:33:23.409Z,13.70
2019-05-20T06:35:53.191Z,13.70
2019-05-20T06:38:43.668Z,13.80
2019-05-20T06:41:13.598Z,13.80
2019-05-20T06:43:43.369Z,13.90
2019-05-20T06:46:13.145Z,13.90
2019-05-20T06:48:42.835Z,13.90
2019-05-20T06:51:12.624Z,13.90
2019-05-20T06:53:42.411Z,13.90
2019-05-20T06:56:12.111Z,13.80
2019-05-20T06:58:42.898Z,13.90
2019-05-20T07:01:12.614Z,13.90
2019-05-20T07:03:42.324Z,13.90
2019-05-20T07:06:12.111Z,14.00
2019-05-20T07:08:41.909Z,14.00
2019-05-20T07:11:11.761Z,13.90
2019-05-20T07:13:41.454Z,13.90
2019-05-20T07:16:11.181Z,13.90
2019-05-20T07:18:41.010Z,13.90
2019-05-20T07:21:11.111Z,13.90
2019-05-20T07:23:40.863Z,13.90
2019-05-20T07:26:10.653Z,14.00
2019-05-20T07:28:40.376Z,14.10
2019-05-20T07:31:10.191Z,14.20
2019-05-20T07:33:40.027Z,14.40
2019-05-20T07:36:10.228Z,14.50
2019-05-20T07:38:40.117Z,14.60
2019-05-20T07:41:09.915Z,14.70
2019-05-20T07:43:39.752Z,14.90
2019-05-20T07:46:10.998Z,15.00
2019-05-20T07:48:41.226Z,15.10
2019-05-20T07:51:12.529Z,15.10
2019-05-20T07:53:43.091Z,15.10
2019-05-20T07:56:17.696Z,15.10
2019-05-20T07:58:50.554Z,15.10
2019-05-20T08:01:20.534Z,15.30
2019-05-20T08:03:50.307Z,15.50
2019-05-20T08:06:20.160Z,15.40
2019-05-20T08:08:50.839Z,15.30
2019-05-20T08:11:20.584Z,15.30
2019-05-20T08:13:50.346Z,15.20
2019-05-20T08:16:21.265Z,15.10
2019-05-20T08:18:51.138Z,15.10
2019-05-20T08:21:20.974Z,15.10
2019-05-20T08:23:50.695Z,15.20
2019-05-20T08:26:20.535Z,15.20
2019-05-20T08:28:50.307Z,15.30
2019-05-20T08:31:20.079Z,15.30
2019-05-20T08:33:50.815Z,15.20
2019-05-20T08:36:20.522Z,15.20
2019-05-20T08:38:50.235Z,15.30
2019-05-20T08:41:20.071Z,15.40
2019-05-20T08:43:49.811Z,15.50
2019-05-20T08:46:19.658Z,15.60
2019-05-20T08:48:49.492Z,15.60
2019-05-20T08:51:19.314Z,15.70
2019-05-20T08:53:49.179Z,15.60
2019-05-20T08:56:18.952Z,15.70
2019-05-20T08:58:48.715Z,15.70
2019-05-20T09:01:18.470Z,15.80
2019-05-20T09:03:48.307Z,16.00
2019-05-20T09:06:20.789Z,16.10
2019-05-20T09:08:49.506Z,16.20
2019-05-20T09:11:19.299Z,16.30
2019-05-20T09:13:49.066Z,16.30
2019-05-20T09:16:18.891Z,16.30
2019-05-20T09:18:48.656Z,16.30
2019-05-20T09:21:18.378Z,16.20
2019-05-20T09:23:48.097Z,16.20
2019-05-20T09:26:17.803Z,16.30
2019-05-20T09:28:47.574Z,16.30
2019-05-20T09:31:17.450Z,16.40
2019-05-20T09:33:47.317Z,16.40
2019-05-20T09:36:17.022Z,16.40
2019-05-20T09:38:50.042Z,16.40
2019-05-20T09:41:19.923Z,16.50
2019-05-20T09:43:49.707Z,16.50
2019-05-20T09:46:19.474Z,16.60
2019-05-20T09:48:49.178Z,16.60
2019-05-20T09:51:19.141Z,16.50
2019-05-20T09:53:49.042Z,16.60
2019-05-20T09:56:18.819Z,16.40
2019-05-20T09:58:48.521Z,16.30
2019-05-20T10:01:18.266Z,16.10
2019-05-20T10:03:48.069Z,16.00
2019-05-20T10:06:17.863Z,16.00
2019-05-20T10:08:47.615Z,15.90
2019-05-20T10:11:17.312Z,15.90
2019-05-20T10:13:47.178Z,16.00
2019-05-20T10:16:16.881Z,16.00
2019-05-20T10:18:46.564Z,16.00
2019-05-20T10:21:16.270Z,16.10
2019-05-20T10:23:45.960Z,16.10
2019-05-20T10:26:15.811Z,16.10
2019-05-20T10:28:47.468Z,16.20
2019-05-20T10:31:17.086Z,16.20
2019-05-20T10:33:46.848Z,16.30
2019-05-20T10:36:16.544Z,16.30
2019-05-20T10:38:57.606Z,16.30
2019-05-20T10:41:17.703Z,16.20
2019-05-20T10:43:47.385Z,16.10
2019-05-20T10:46:17.143Z,16.20
2019-05-20T10:48:46.861Z,16.30
2019-05-20T10:51:16.716Z,16.60
2019-05-20T10:53:46.559Z,16.90
2019-05-20T10:56:16.363Z,17.00
2019-05-20T10:58:46.216Z,17.10
2019-05-20T11:01:15.928Z,17.20
2019-05-20T11:03:45.683Z,17.30
2019-05-20T11:06:15.396Z,17.30
2019-05-20T11:08:45.108Z,17.50
2019-05-20T11:11:14.937Z,17.50
2019-05-20T11:13:44.743Z,17.40
2019-05-20T11:16:14.503Z,17.30
2019-05-20T11:18:44.207Z,17.30
2019-05-20T11:21:14.002Z,17.50
2019-05-20T11:23:43.709Z,17.70
2019-05-20T11:26:13.586Z,17.90
2019-05-20T11:28:43.379Z,18.00
2019-05-20T11:31:13.134Z,18.00
2019-05-20T11:33:42.933Z,18.00
2019-05-20T11:36:12.928Z,18.00
2019-05-20T11:38:42.623Z,18.10
2019-05-20T11:41:14.776Z,18.30
2019-05-20T11:43:44.618Z,18.40
2019-05-20T11:46:15.368Z,18.40
2019-05-20T11:48:45.111Z,18.40
2019-05-20T11:51:14.823Z,18.40
2019-05-20T11:53:44.659Z,18.60
2019-05-20T11:56:14.428Z,18.70
2019-05-20T11:58:44.110Z,18.60
2019-05-20T12:01:13.787Z,18.50
2019-05-20T12:03:43.486Z,18.60
2019-05-20T12:06:13.384Z,18.60
2019-05-20T12:08:43.145Z,18.70
2019-05-20T12:11:12.963Z,18.60
2019-05-20T12:13:42.683Z,18.60
2019-05-20T12:16:12.507Z,18.50
2019-05-20T12:18:45.076Z,18.40
2019-05-20T12:21:13.636Z,18.50
2019-05-20T12:23:43.314Z,18.40
2019-05-20T12:26:13.097Z,18.50
2019-05-20T12:28:42.787Z,18.50
2019-05-20T12:31:12.671Z,18.50
2019-05-20T12:33:42.514Z,18.60
2019-05-20T12:36:12.333Z,18.60
2019-05-20T12:38:42.023Z,18.70
2019-05-20T12:41:11.906Z,18.80
2019-05-20T12:43:44.694Z,18.70
2019-05-20T12:46:13.157Z,18.60
2019-05-20T12:48:43.876Z,18.60
2019-05-20T12:51:14.665Z,18.70
2019-05-20T12:53:44.727Z,18.80
2019-05-20T12:56:14.460Z,18.90
2019-05-20T12:58:44.343Z,18.90
2019-05-20T13:01:14.125Z,18.80
2019-05-20T13:03:43.828Z,18.50
2019-05-20T13:06:13.674Z,18.40
2019-05-20T13:08:43.389Z,18.50
2019-05-20T13:11:13.251Z,18.40
2019-05-20T13:13:43.023Z,18.30
2019-05-20T13:16:12.818Z,18.20
2019-05-20T13:18:54.884Z,18.00
2019-05-20T13:21:14.080Z,18.10
2019-05-20T13:23:43.884Z,18.20
2019-05-20T13:26:13.661Z,18.30
2019-05-20T13:28:43.367Z,18.50
2019-05-20T13:31:13.081Z,18.60
2019-05-20T13:33:42.971Z,18.80
2019-05-20T13:36:12.720Z,19.10
2019-05-20T13:38:42.667Z,19.10
2019-05-20T13:41:12.502Z,19.00
2019-05-20T13:43:42.204Z,18.60
2019-05-20T13:46:12.241Z,18.30
2019-05-20T13:48:42.190Z,17.90
2019-05-20T13:51:12.121Z,17.80
2019-05-20T13:53:42.941Z,17.70
2019-05-20T13:56:12.733Z,17.70
2019-05-20T13:58:42.431Z,17.70
2019-05-20T14:01:12.326Z,17.80
2019-05-20T14:03:42.155Z,17.90
2019-05-20T14:06:11.963Z,18.00
2019-05-20T14:08:41.691Z,18.00
2019-05-20T14:11:11.642Z,17.90
2019-05-20T14:13:41.334Z,17.80
2019-05-20T14:16:11.099Z,17.70
2019-05-20T14:18:42.039Z,17.60
2019-05-20T14:21:11.867Z,17.50
2019-05-20T14:23:41.660Z,17.30
2019-05-20T14:26:11.441Z,17.20
2019-05-20T14:28:42.429Z,17.00
2019-05-20T14:31:15.016Z,16.80
2019-05-20T14:33:44.804Z,16.60
2019-05-20T14:36:37.283Z,16.40
2019-05-20T14:38:46.080Z,16.40
2019-05-20T14:41:21.594Z,16.30
2019-05-20T14:43:47.932Z,16.30
2019-05-20T14:46:17.695Z,16.40
2019-05-20T14:48:50.732Z,16.40
2019-05-20T14:51:22.940Z,16.40
2019-05-20T14:53:52.614Z,16.30
2019-05-20T14:56:22.331Z,16.10
2019-05-20T14:58:52.095Z,15.90
2019-05-20T15:01:21.891Z,15.80
2019-05-20T15:03:51.590Z,15.70
2019-05-20T15:06:21.452Z,15.70
2019-05-20T15:08:51.446Z,15.70
2019-05-20T15:11:35.639Z,15.60
2019-05-20T15:13:52.583Z,15.50
2019-05-20T15:16:22.423Z,15.40
2019-05-20T15:18:52.480Z,15.30
2019-05-20T15:21:22.191Z,15.20
2019-05-20T15:23:51.950Z,15.10
2019-05-20T15:26:21.642Z,15.00
2019-05-20T15:28:51.351Z,15.00
2019-05-20T15:31:21.058Z,15.00
2019-05-20T15:33:50.829Z,15.00
2019-05-20T15:36:20.652Z,15.00
2019-05-20T15:38:50.343Z,15.10
2019-05-20T15:41:21.111Z,15.20
2019-05-20T15:43:50.870Z,15.20
2019-05-20T15:46:20.883Z,15.20
2019-05-20T15:48:50.583Z,15.20
2019-05-20T15:51:20.303Z,15.20
2019-05-20T15:53:50.074Z,15.30
2019-05-20T15:56:19.819Z,15.40
2019-05-20T15:58:49.614Z,15.40
2019-05-20T16:01:19.554Z,15.40
2019-05-20T16:03:51.493Z,15.40
2019-05-20T16:06:21.044Z,15.40
2019-05-20T16:08:50.755Z,15.40
2019-05-20T16:11:20.471Z,15.40
2019-05-20T16:13:50.167Z,15.30
2019-05-20T16:16:21.044Z,15.30
2019-05-20T16:18:50.755Z,15.20
2019-05-20T16:21:20.612Z,15.20
2019-05-20T16:23:50.463Z,15.20
2019-05-20T16:26:20.236Z,15.30
2019-05-20T16:28:50.151Z,15.30
2019-05-20T16:31:19.838Z,15.30
2019-05-20T16:33:49.575Z,15.40
2019-05-20T16:36:19.441Z,15.40
2019-05-20T16:38:50.110Z,15.50
2019-05-20T16:41:20.435Z,15.50
2019-05-20T16:43:50.240Z,15.50
2019-05-20T16:46:20.019Z,15.50
2019-05-20T16:48:49.783Z,15.60
2019-05-20T16:51:22.164Z,15.70
2019-05-20T16:53:52.135Z,15.70
2019-05-20T16:56:21.919Z,15.70
2019-05-20T16:58:51.633Z,15.60
2019-05-20T17:01:21.407Z,15.60
2019-05-20T17:03:51.198Z,15.50
2019-05-20T17:06:21.031Z,15.60
2019-05-20T17:08:50.761Z,15.50
2019-05-20T17:11:20.537Z,15.40
2019-05-20T17:13:50.326Z,15.30
2019-05-20T17:16:20.121Z,15.20
2019-05-20T17:18:49.975Z,15.10
2019-05-20T17:21:19.889Z,15.00
2019-05-20T17:23:49.626Z,14.80
2019-05-20T17:26:19.431Z,14.70
2019-05-20T17:28:49.183Z,14.70
2019-05-20T17:31:19.054Z,14.70
2019-05-20T17:33:48.911Z,14.70
2019-05-20T17:36:18.740Z,14.70
2019-05-20T17:38:48.525Z,14.60
2019-05-20T17:41:18.365Z,14.50
2019-05-20T17:43:48.148Z,14.50
2019-05-20T17:46:18.128Z,14.40
2019-05-20T17:48:47.975Z,14.40
2019-05-20T17:51:18.007Z,14.40
2019-05-20T17:53:47.710Z,14.40
2019-05-20T17:56:17.544Z,14.40
2019-05-20T17:58:47.324Z,14.40
2019-05-20T18:01:17.043Z,14.40
2019-05-20T18:03:46.769Z,14.40
2019-05-20T18:06:16.580Z,14.40
2019-05-20T18:08:50.238Z,14.40
2019-05-20T18:11:20.110Z,14.40
2019-05-20T18:13:49.799Z,14.40
2019-05-20T18:16:19.773Z,14.40
2019-05-20T18:18:49.871Z,14.40
2019-05-20T18:21:19.882Z,14.40
2019-05-20T18:23:49.671Z,14.30
2019-05-20T18:26:19.446Z,14.30
2019-05-20T18:28:49.210Z,14.30
2019-05-20T18:31:31.717Z,14.10
2019-05-20T18:33:50.679Z,14.10
2019-05-20T18:36:20.447Z,14.00
2019-05-20T18:38:50.318Z,14.00
2019-05-20T18:41:20.223Z,14.00
2019-05-20T18:43:49.935Z,13.90
2019-05-20T18:46:19.731Z,13.80
2019-05-20T18:48:49.437Z,13.70
2019-05-20T18:51:19.317Z,13.60
2019-05-20T18:53:49.005Z,13.60
2019-05-20T18:56:19.777Z,13.50
2019-05-20T18:58:49.544Z,13.40
2019-05-20T19:01:19.813Z,13.40
2019-05-20T19:03:49.693Z,13.40
2019-05-20T19:06:19.560Z,13.40
2019-05-20T19:08:52.340Z,13.50
2019-05-20T19:11:22.212Z,13.40
2019-05-20T19:13:53.029Z,13.40
2019-05-20T19:16:22.801Z,13.30
2019-05-20T19:18:52.580Z,13.20
2019-05-20T19:21:22.369Z,13.10
2019-05-20T19:23:52.184Z,13.00
2019-05-20T19:26:25.012Z,12.90
2019-05-20T19:28:53.371Z,12.90
2019-05-20T19:31:23.156Z,12.90
2019-05-20T19:33:52.859Z,12.80
2019-05-20T19:36:22.644Z,12.80
2019-05-20T19:38:52.695Z,12.90
2019-05-20T19:41:22.419Z,12.90
2019-05-20T19:43:53.103Z,12.80
2019-05-20T19:46:22.816Z,12.80
2019-05-20T19:48:52.511Z,12.80
2019-05-20T19:51:22.293Z,12.80
2019-05-20T19:53:52.175Z,12.70
2019-05-20T19:56:21.894Z,12.70
2019-05-20T19:58:51.595Z,12.80
2019-05-20T20:01:21.367Z,12.80
2019-05-20T20:03:51.155Z,12.80
2019-05-20T20:06:20.935Z,12.80
2019-05-20T20:08:50.710Z,12.70
2019-05-20T20:11:20.577Z,12.70
2019-05-20T20:13:50.348Z,12.70
2019-05-20T20:16:20.132Z,12.70
2019-05-20T20:18:49.819Z,12.70
2019-05-20T20:21:19.551Z,12.70
2019-05-20T20:23:49.284Z,12.70
2019-05-20T20:26:19.041Z,12.60
2019-05-20T20:28:48.738Z,12.60
2019-05-20T20:31:18.502Z,12.60
2019-05-20T20:33:48.395Z,12.60
2019-05-20T20:36:21.218Z,12.60
2019-05-20T20:38:49.580Z,12.60
2019-05-20T20:41:19.421Z,12.50
2019-05-20T20:43:49.181Z,12.60
2019-05-20T20:46:18.986Z,12.60
2019-05-20T20:48:48.774Z,12.60
2019-05-20T20:51:18.508Z,12.60
2019-05-20T20:53:49.184Z,12.60
2019-05-20T20:56:25.322Z,12.60
2019-05-20T20:58:50.766Z,12.60
2019-05-20T21:01:20.579Z,12.60
2019-05-20T21:03:50.435Z,12.60
2019-05-20T21:06:20.235Z,12.60
2019-05-20T21:08:49.954Z,12.50
2019-05-20T21:11:19.839Z,12.50
2019-05-20T21:13:49.548Z,12.50
2019-05-20T21:16:19.403Z,12.50
2019-05-20T21:18:49.095Z,12.50
2019-05-20T21:21:18.844Z,12.40
2019-05-20T21:23:48.563Z,12.40
2019-05-20T21:26:18.255Z,12.40
2019-05-20T21:28:47.942Z,12.40
2019-05-20T21:31:17.728Z,12.40
2019-05-20T21:33:47.419Z,12.50
2019-05-20T21:36:17.183Z,12.50
2019-05-20T21:38:46.881Z,12.50
2019-05-20T21:41:16.646Z,12.50
2019-05-20T21:43:46.369Z,12.50
2019-05-20T21:46:16.076Z,12.40
2019-05-20T21:48:45.942Z,12.40
2019-05-20T21:51:15.651Z,12.40
2019-05-20T21:53:45.365Z,12.50
2019-05-20T21:56:15.154Z,12.50
2019-05-20T21:58:44.827Z,12.50
2019-05-20T22:01:16.437Z,12.50
2019-05-20T22:03:46.190Z,12.50
2019-05-20T22:06:15.967Z,12.40
2019-05-20T22:08:45.654Z,12.50
2019-05-20T22:11:15.496Z,12.50
2019-05-20T22:13:45.273Z,12.50
2019-05-20T22:16:14.974Z,12.50
2019-05-20T22:18:44.802Z,12.40
2019-05-20T22:21:16.150Z,12.50
2019-05-20T22:23:56.919Z,12.50
2019-05-20T22:26:26.652Z,12.50
2019-05-20T22:28:56.337Z,12.40
2019-05-20T22:31:26.290Z,12.40
2019-05-20T22:33:57.201Z,12.40
2019-05-20T22:36:26.918Z,12.50
2019-05-20T22:38:56.690Z,12.50
2019-05-20T22:41:26.507Z,12.50
2019-05-20T22:43:56.205Z,12.40
2019-05-20T22:46:26.007Z,12.40
2019-05-20T22:48:55.851Z,12.40
2019-05-20T22:51:25.631Z,12.40
2019-05-20T22:53:55.365Z,12.40
2019-05-20T22:56:25.134Z,12.30
2019-05-20T22:58:54.806Z,12.30
2019-05-20T23:01:24.559Z,12.30
2019-05-20T23:03:56.337Z,12.30
2019-05-20T23:06:25.693Z,12.30
2019-05-20T23:08:55.382Z,12.30
2019-05-20T23:11:25.078Z,12.20
2019-05-20T23:13:54.792Z,12.20
2019-05-20T23:16:24.488Z,12.20
2019-05-20T23:18:54.203Z,12.30
2019-05-20T23:21:23.914Z,12.30
2019-05-20T23:23:53.618Z,12.30
2019-05-20T23:26:23.333Z,12.30
2019-05-20T23:28:53.183Z,12.30
2019-05-20T23:31:22.908Z,12.30
2019-05-20T23:33:52.699Z,12.30
2019-05-20T23:36:22.403Z,12.30
2019-05-20T23:38:53.096Z,12.30
2019-05-20T23:41:22.778Z,12.30
2019-05-20T23:43:52.567Z,12.30
2019-05-20T23:46:22.274Z,12.20
2019-05-20T23:48:52.079Z,12.20
2019-05-20T23:51:21.821Z,12.30
2019-05-20T23:53:51.735Z,12.20
2019-05-20T23:56:21.512Z,12.20
2019-05-20T23:58:52.246Z,12.30
